Time;durP1;ratioP1;P1;durP2;ratioP2;P2;SDS_P1;SDS_P2;PMS_P1;PMS_P2;Temp;Humidity;BMP_temperature;BMP_pressure;BME280_temperature;BME280_humidity;BME280_pressure;Samples;Min_cycle;Max_cycle;Signal;HPM_P1;HPM_P2
2023/08/04 00:00:40;;;;;;;;;;;19.80;89.50;;;20.02;52.16;98101.34;5000702;28;114732;-86
2023/08/04 00:03:09;;;;;;;;;;;19.80;89.70;;;20.02;52.27;98101.34;4976600;28;114991;-86
2023/08/04 00:05:36;;;;;;;;;;;19.80;90.00;;;20.02;52.43;98109.75;4978827;28;123746;-86
2023/08/04 00:08:03;;;;;;;;;;;19.80;90.00;;;20.01;52.55;98114.53;4979639;28;123628;-84
2023/08/04 00:10:29;;;;;;;;;;;19.80;90.10;;;20.00;52.22;98114.94;4994555;28;114835;-85
2023/08/04 00:12:58;;;;;;;;;;;19.70;90.00;;;19.99;52.48;98111.34;4988024;28;113902;-86
2023/08/04 00:15:25;;;;;;;;;;;19.80;90.10;;;19.97;52.53;98110.91;4988008;28;124781;-86
2023/08/04 00:17:51;;;;;;;;;;;19.70;90.10;;;19.99;52.52;98118.94;4967720;28;123887;-86
2023/08/04 00:20:17;;;;;;;;;;;19.70;90.10;;;19.99;52.30;98116.16;4980261;28;114748;-85
2023/08/04 00:22:46;;;;;;;;;;;19.70;90.10;;;19.98;52.30;98108.91;4985717;28;113422;-85
2023/08/04 00:25:12;;;;;;;;;;;19.70;90.20;;;19.93;52.27;98115.69;4996825;28;123962;-85
2023/08/04 00:27:38;;;;;;;;;;;19.70;90.20;;;19.89;52.61;98119.69;4973024;28;124447;-85
2023/08/04 00:30:09;;;;;;;;;;;19.70;90.30;;;19.84;52.70;98124.44;4990683;28;114234;-86
2023/08/04 00:32:35;;;;;;;;;;;19.60;90.30;;;19.79;52.81;98122.00;4981161;28;113455;-86
2023/08/04 00:35:03;;;;;;;;;;;19.60;90.20;;;19.77;53.00;98121.63;4978426;28;126497;-85
2023/08/04 00:37:29;;;;;;;;;;;19.60;90.30;;;19.78;52.71;98114.81;4982402;28;123973;-85
2023/08/04 00:39:58;;;;;;;;;;;19.60;90.40;;;19.76;52.69;98107.97;4976353;28;114571;-86
2023/08/04 00:42:24;;;;;;;;;;;19.50;90.40;;;19.73;52.95;98117.19;4988691;28;113639;-86
2023/08/04 00:44:51;;;;;;;;;;;19.50;90.40;;;19.73;53.10;98129.19;4981655;28;123351;-84
2023/08/04 00:47:18;;;;;;;;;;;19.50;90.50;;;19.72;53.08;98122.00;4983298;28;124186;-86
2023/08/04 00:49:48;;;;;;;;;;;19.50;90.60;;;19.71;52.91;98120.34;4982963;28;115315;-85
2023/08/04 00:52:15;;;;;;;;;;;19.50;90.60;;;19.70;52.82;98121.56;4979733;28;114704;-85
2023/08/04 00:54:41;;;;;;;;;;;19.50;90.70;;;19.68;53.27;98123.16;4984097;28;124157;-86
2023/08/04 00:57:13;;;;;;;;;;;19.50;90.70;;;19.66;53.21;98129.13;4983127;28;124433;-85
2023/08/04 00:59:39;;;;;;;;;;;19.50;90.80;;;19.65;53.17;98124.69;4994717;28;114966;-85
2023/08/04 01:02:10;;;;;;;;;;;19.40;90.80;;;19.65;53.00;98125.50;4984583;28;113130;-85
2023/08/04 01:04:40;;;;;;;;;;;19.40;90.80;;;19.64;53.29;98137.91;4982997;28;124913;-88
2023/08/04 01:07:16;;;;;;;;;;;19.40;90.90;;;;;;4991048;28;123723;-87
2023/08/04 01:10:03;;;;;;;;;;;19.40;90.90;;;19.60;53.04;98136.28;4980442;28;114818;-87
2023/08/04 01:12:59;;;;;;;;;;;19.30;90.90;;;19.57;53.25;98131.44;4985362;28;113787;-86
2023/08/04 01:15:26;;;;;;;;;;;19.30;90.80;;;19.52;53.07;98140.22;4982285;28;124011;-87
2023/08/04 01:17:53;;;;;;;;;;;19.30;90.80;;;19.50;53.28;98142.59;5003914;28;123659;-87
2023/08/04 01:20:27;;;;;;;;;;;19.30;90.90;;;19.49;53.36;98136.19;4978755;28;114194;-87
2023/08/04 01:22:55;;;;;;;;;;;19.20;90.90;;;19.51;53.30;98138.63;4979791;28;113753;-86
2023/08/04 01:25:35;;;;;;;;;;;19.20;90.90;;;19.50;53.47;98125.78;4987610;28;124250;-86
2023/08/04 01:28:05;;;;;;;;;;;19.20;91.00;;;19.49;53.36;98141.78;4970101;28;125257;-86
2023/08/04 01:30:37;;;;;;;;;;;19.20;91.00;;;19.48;53.15;98130.97;4979611;28;114461;-86
2023/08/04 01:33:04;;;;;;;;;;;19.20;91.00;;;19.45;53.28;98124.16;4982087;28;113943;-86
2023/08/04 01:35:35;;;;;;;;;;;19.20;91.00;;;19.43;53.17;98120.94;4970819;28;124013;-87
2023/08/04 01:38:01;;;;;;;;;;;19.10;91.00;;;19.38;53.33;98122.09;4967154;28;125782;-86
2023/08/04 01:40:27;;;;;;;;;;;19.10;91.00;;;19.36;53.31;98118.06;4970776;28;115370;-86
2023/08/04 01:42:54;;;;;;;;;;;19.10;91.00;;;19.33;53.38;98125.25;4978029;28;114964;-86
2023/08/04 01:45:20;;;;;;;;;;;19.10;91.10;;;19.28;53.56;98120.00;4977214;28;124172;-82
2023/08/04 01:47:53;;;;;;;;;;;19.10;91.10;;;19.24;53.58;98113.59;4976920;28;123960;-86
2023/08/04 01:50:19;;;;;;;;;;;19.00;91.10;;;19.23;53.64;98113.97;4974625;28;114473;-86
2023/08/04 01:52:46;;;;;;;;;;;19.00;91.20;;;19.22;53.62;98110.34;4970691;28;113677;-86
2023/08/04 01:55:12;;;;;;;;;;;19.00;91.20;;;19.20;53.51;98113.53;4980661;28;124172;-86
2023/08/04 01:57:40;;;;;;;;;;;19.00;91.20;;;19.20;53.77;98112.72;4983770;28;122442;-86
2023/08/04 02:00:08;;;;;;;;;;;19.00;91.30;;;19.19;53.54;98111.13;4958849;28;113722;-86
2023/08/04 02:02:36;;;;;;;;;;;18.90;91.30;;;19.17;53.70;98110.72;4969172;28;113619;-87
2023/08/04 02:05:05;;;;;;;;;;;18.90;91.30;;;19.16;53.58;98109.13;4974962;28;124130;-87
2023/08/04 02:07:32;;;;;;;;;;;18.90;91.30;;;19.15;53.79;98113.09;4982084;28;123761;-87
2023/08/04 02:09:58;;;;;;;;;;;18.90;91.40;;;19.15;53.71;98110.28;4995123;28;114567;-87
2023/08/04 02:12:24;;;;;;;;;;;18.90;91.40;;;19.16;53.56;98109.13;4994640;28;113424;-87
2023/08/04 02:14:52;;;;;;;;;;;18.90;91.40;;;19.16;53.58;98106.31;4983852;28;123625;-86
2023/08/04 02:17:21;;;;;;;;;;;18.90;91.40;;;19.17;53.87;98107.91;4984440;28;123818;-86
2023/08/04 02:19:47;;;;;;;;;;;18.90;91.40;;;19.13;53.81;98107.88;4991897;28;114624;-86
2023/08/04 02:22:16;;;;;;;;;;;18.80;91.40;;;19.12;53.58;98111.06;4978048;28;113713;-86
2023/08/04 02:24:43;;;;;;;;;;;18.80;91.40;;;19.10;53.71;98107.84;4994118;28;124552;-87
2023/08/04 02:27:09;;;;;;;;;;;18.80;91.40;;;19.08;53.96;98119.44;4977115;28;123899;-87
2023/08/04 02:29:35;;;;;;;;;;;18.80;91.50;;;19.08;53.85;98116.63;4988137;28;115340;-86
2023/08/04 02:32:05;;;;;;;;;;;18.80;91.50;;;19.09;54.04;98111.84;4982590;28;114513;-87
2023/08/04 02:34:31;;;;;;;;;;;18.80;91.50;;;19.11;53.94;98124.25;4992840;28;124229;-87
2023/08/04 02:36:58;;;;;;;;;;;18.80;91.60;;;19.14;53.81;98119.88;4975370;28;123853;-86
2023/08/04 02:39:32;;;;;;;;;;;18.80;91.60;;;19.15;53.96;98122.28;4976870;28;114464;-86
2023/08/04 02:41:59;;;;;;;;;;;18.90;91.70;;;19.15;53.76;98113.09;4970882;28;113818;-86
2023/08/04 02:44:33;;;;;;;;;;;18.80;91.60;;;19.16;53.74;98117.50;4977987;28;124054;-86
2023/08/04 02:47:01;;;;;;;;;;;18.80;91.60;;;19.16;53.74;98120.31;4988866;28;124008;-87
2023/08/04 02:49:27;;;;;;;;;;;18.80;91.60;;;19.14;53.59;98114.28;4974450;28;114370;-86
2023/08/04 02:51:59;;;;;;;;;;;18.80;91.50;;;19.12;53.75;98114.66;4971508;28;113660;-87
2023/08/04 02:54:26;;;;;;;;;;;18.80;91.50;;;19.11;53.83;98115.88;4979756;28;123915;-86
2023/08/04 02:56:57;;;;;;;;;;;18.80;91.50;;;19.10;53.72;98116.25;4971676;28;123925;-86
2023/08/04 02:59:23;;;;;;;;;;;18.80;91.60;;;19.08;53.83;98119.44;4973480;28;113716;-87
2023/08/04 03:01:49;;;;;;;;;;;18.80;91.60;;;19.06;53.77;98116.22;4976990;28;113698;-87
2023/08/04 03:04:16;;;;;;;;;;;18.80;91.60;;;19.06;53.73;98121.81;4980786;28;124151;-87
2023/08/04 03:06:45;;;;;;;;;;;18.80;91.60;;;19.07;53.67;98114.22;4981049;28;123914;-85
2023/08/04 03:09:11;;;;;;;;;;;18.80;91.60;;;19.07;53.73;98114.22;4995648;28;115234;-87
2023/08/04 03:11:37;;;;;;;;;;;18.80;91.60;;;19.06;53.71;98123.81;4970441;28;114160;-86
2023/08/04 03:14:03;;;;;;;;;;;18.80;91.60;;;19.05;53.71;98117.41;4966886;28;124922;-86
2023/08/04 03:16:35;;;;;;;;;;;18.80;91.60;;;19.05;53.63;98122.19;4990964;28;124022;-88
2023/08/04 03:19:02;;;;;;;;;;;18.70;91.50;;;19.03;53.79;98113.38;4990256;28;116540;-87
2023/08/04 03:21:28;;;;;;;;;;;18.70;91.60;;;19.03;53.73;98124.59;4981007;28;114666;-87
2023/08/04 03:24:00;;;;;;;;;;;18.70;91.60;;;19.04;53.71;98113.00;4980904;28;124164;-86
2023/08/04 03:26:33;;;;;;;;;;;18.70;91.60;;;19.06;53.86;98124.63;4977996;28;122874;-86
2023/08/04 03:28:59;;;;;;;;;;;18.70;91.60;;;19.08;53.63;98115.84;4982184;28;113185;-85
2023/08/04 03:31:26;;;;;;;;;;;18.80;91.60;;;19.09;53.73;98120.25;4983048;28;113730;-85
2023/08/04 03:33:52;;;;;;;;;;;18.80;91.60;;;19.11;53.50;98126.25;4971579;28;124187;-86
2023/08/04 03:36:24;;;;;;;;;;;18.80;91.60;;;19.12;53.54;98128.66;4975260;28;123945;-86
2023/08/04 03:38:50;;;;;;;;;;;18.80;91.60;;;19.13;53.54;98115.50;4967996;28;114726;-86
2023/08/04 03:41:17;;;;;;;;;;;18.80;91.60;;;19.13;53.23;98124.69;4968230;28;113650;-86
2023/08/04 03:43:43;;;;;;;;;;;18.80;91.60;;;19.13;53.43;98123.91;4969861;28;124144;-86
2023/08/04 03:46:10;;;;;;;;;;;18.80;91.60;;;19.13;53.42;98118.28;4972640;28;123906;-86
2023/08/04 03:48:38;;;;;;;;;;;18.80;91.50;;;19.13;53.41;98126.69;4977962;28;107421;-86
2023/08/04 03:51:04;;;;;;;;;;;18.80;91.50;;;19.13;53.34;98118.28;4969301;28;113691;-86
2023/08/04 03:53:33;;;;;;;;;;;18.80;91.50;;;19.14;53.24;98123.50;4972091;28;123953;-85
2023/08/04 03:55:59;;;;;;;;;;;18.80;91.50;;;19.12;53.66;98119.47;4975828;28;123567;-86
2023/08/04 03:58:26;;;;;;;;;;;18.80;91.50;;;19.11;53.48;98115.88;4969781;28;114191;-86
2023/08/04 04:00:52;;;;;;;;;;;18.80;91.50;;;19.13;53.45;98119.09;4975699;28;113787;-86
2023/08/04 04:03:24;;;;;;;;;;;17.20;90.90;;;19.17;53.48;98117.09;4976908;28;124512;-82
2023/08/04 04:05:51;;;;;;;;;;;18.90;91.60;;;19.15;53.40;98116.69;4969724;28;123722;-83
2023/08/04 04:08:23;;;;;;;;;;;18.80;91.60;;;19.17;53.49;98119.91;4975922;28;115606;-82
2023/08/04 04:10:49;;;;;;;;;;;18.90;91.60;;;19.18;53.33;98113.13;4996495;28;115018;-82
2023/08/04 04:13:15;;;;;;;;;;;18.90;91.60;;;19.20;53.24;98110.72;4982376;28;124086;-81
2023/08/04 04:15:53;;;;;;;;;;;18.90;91.60;;;19.24;53.18;98112.78;4983348;28;123664;-83
2023/08/04 04:18:24;;;;;;;;;;;18.90;91.50;;;19.26;53.21;98119.59;4990169;28;114698;-81
2023/08/04 04:20:50;;;;;;;;;;;18.90;91.50;;;19.28;53.07;98114.41;4982609;28;113833;-80
2023/08/04 04:23:17;;;;;;;;;;;18.90;91.50;;;19.28;53.04;98120.00;4972245;28;124101;-81
2023/08/04 04:25:45;;;;;;;;;;;18.90;91.50;;;19.30;53.13;98123.22;4977806;28;123982;-83
2023/08/04 04:28:12;;;;;;;;;;;18.90;91.40;;;19.32;52.97;98131.25;4977433;28;114154;-82
2023/08/04 04:30:38;;;;;;;;;;;19.00;91.50;;;19.33;53.21;98128.06;4973884;28;112773;-83
2023/08/04 04:33:04;;;;;;;;;;;19.00;91.50;;;19.38;53.02;98133.31;4975607;28;125213;-82
2023/08/04 04:35:33;;;;;;;;;;;19.00;91.60;;;19.46;53.04;98122.97;4977271;28;124651;-82
2023/08/04 04:38:00;;;;;;;;;;;19.00;91.60;;;19.50;53.00;98132.19;4971464;28;113571;-82
2023/08/04 04:40:28;;;;;;;;;;;19.10;91.70;;;19.48;53.60;98128.16;4969018;28;114245;-81
2023/08/04 04:42:54;;;;;;;;;;;19.10;91.80;;;19.45;53.50;98128.94;4989897;28;124227;-82
2023/08/04 04:45:21;;;;;;;;;;;19.10;91.90;;;19.45;54.19;98132.56;4991450;28;123853;-82
2023/08/04 04:47:47;;;;;;;;;;;19.10;92.00;;;19.45;54.24;98145.75;4970875;28;114515;-82
2023/08/04 04:50:13;;;;;;;;;;;19.10;92.20;;;19.45;54.36;98137.34;4969156;28;113712;-82
2023/08/04 04:52:40;;;;;;;;;;;19.10;92.20;;;19.47;54.44;98146.16;4984467;28;123477;-82
2023/08/04 04:55:07;;;;;;;;;;;19.10;92.30;;;19.45;54.36;98149.38;4974666;28;124229;-82
2023/08/04 04:57:39;;;;;;;;;;;19.10;92.40;;;19.43;54.37;98148.94;4963095;28;114378;-83
2023/08/04 05:00:06;;;;;;;;;;;19.10;92.40;;;19.42;54.50;98152.94;4972577;28;115825;-80
2023/08/04 05:02:33;;;;;;;;;;;19.10;92.50;;;19.41;54.61;98149.31;4971032;28;123208;-84
2023/08/04 05:04:59;;;;;;;;;;;19.10;92.50;;;19.43;54.93;98148.94;4969648;28;123969;-82
2023/08/04 05:07:29;;;;;;;;;;;19.10;92.60;;;19.42;54.93;98148.16;4977529;28;114596;-83
2023/08/04 05:09:55;;;;;;;;;;;19.10;92.70;;;19.42;54.77;98148.16;4969702;28;113507;-81
2023/08/04 05:12:21;;;;;;;;;;;19.10;92.70;;;19.50;54.59;98153.81;4984451;28;124221;-82
2023/08/04 05:14:48;;;;;;;;;;;19.10;92.70;;;19.52;54.95;98149.41;4963260;28;123542;-84
2023/08/04 05:17:23;;;;;;;;;;;19.20;92.70;;;19.56;54.72;98153.06;4991990;28;113525;-83
2023/08/04 05:19:55;;;;;;;;;;;19.20;92.70;;;19.60;54.66;98153.09;4986132;28;113665;-83
2023/08/04 05:22:22;;;;;;;;;;;19.20;92.70;;;19.61;54.53;98160.28;4979551;28;124219;-82
2023/08/04 05:24:48;;;;;;;;;;;19.20;92.70;;;19.62;54.65;98161.91;4978748;28;124046;-83
2023/08/04 05:27:17;;;;;;;;;;;19.20;92.70;;;19.65;54.26;98161.94;4972020;28;114898;-82
2023/08/04 05:29:44;;;;;;;;;;;19.30;92.70;;;19.64;54.59;98162.34;4979773;28;112691;-83
2023/08/04 05:32:10;;;;;;;;;;;19.30;92.70;;;19.62;54.68;98164.72;4975033;28;124120;-84
2023/08/04 05:34:41;;;;;;;;;;;19.30;92.70;;;19.57;54.49;98159.47;4995349;28;122849;-83
2023/08/04 05:37:10;;;;;;;;;;;19.20;92.60;;;19.56;54.83;98163.47;4972909;28;114652;-84
2023/08/04 05:39:36;;;;;;;;;;;19.20;92.80;;;19.58;54.61;98166.66;4974825;28;114197;-83
2023/08/04 05:42:06;;;;;;;;;;;19.20;92.80;;;19.61;54.82;98171.50;4972572;28;124816;-82
2023/08/04 05:44:32;;;;;;;;;;;19.20;92.80;;;19.67;54.47;98169.19;4977561;28;124303;-83
2023/08/04 05:47:08;;;;;;;;;;;19.30;92.80;;;19.71;54.53;98170.00;4969878;28;115261;-83
2023/08/04 05:49:34;;;;;;;;;;;19.30;92.80;;;19.74;54.63;98172.03;4977538;28;114393;-84
2023/08/04 05:52:05;;;;;;;;;;;19.40;92.80;;;19.78;54.43;98165.25;4981494;28;123876;-81
2023/08/04 05:54:31;;;;;;;;;;;19.40;92.80;;;19.81;54.46;98174.91;4999230;28;123275;-83
2023/08/04 05:56:59;;;;;;;;;;;19.40;92.80;;;19.83;54.13;98173.31;4973896;28;114415;-83
2023/08/04 05:59:36;;;;;;;;;;;19.40;92.70;;;19.85;54.14;98179.34;4989081;28;114374;-81
2023/08/04 06:02:07;;;;;;;;;;;19.50;92.70;;;19.85;54.33;98168.13;4974180;28;123995;-83
2023/08/04 06:04:36;;;;;;;;;;;19.50;92.60;;;19.86;54.20;98166.94;4982186;28;122829;-83
2023/08/04 06:07:05;;;;;;;;;;;19.50;92.60;;;19.92;54.24;98170.16;4966877;28;114226;-84
2023/08/04 06:09:31;;;;;;;;;;;19.50;92.60;;;19.97;54.17;98167.00;4982876;28;113719;-82
2023/08/04 06:11:58;;;;;;;;;;;19.60;92.60;;;20.02;53.72;98168.63;4962060;28;123302;-81
2023/08/04 06:14:24;;;;;;;;;;;19.60;92.60;;;20.02;53.77;98171.44;4993133;28;124142;-84
2023/08/04 06:16:53;;;;;;;;;;;19.60;92.50;;;20.03;53.70;98167.44;4981720;28;115202;-82
2023/08/04 06:19:20;;;;;;;;;;;19.60;92.50;;;20.04;54.10;98171.84;4985742;28;113780;-85
2023/08/04 06:21:46;;;;;;;;;;;19.70;92.50;;;20.05;53.58;98174.25;4982995;28;124378;-84
2023/08/04 06:24:25;;;;;;;;;;;19.70;92.50;;;20.07;53.58;98176.69;4969943;28;124311;-84
2023/08/04 06:26:53;;;;;;;;;;;19.70;92.40;;;20.08;53.90;98181.88;4981439;28;114412;-83
2023/08/04 06:29:20;;;;;;;;;;;19.70;92.50;;;20.11;53.74;98188.72;4986768;28;114489;-82
2023/08/04 06:31:46;;;;;;;;;;;19.70;92.40;;;20.13;53.80;98179.91;4961928;28;124303;-83
2023/08/04 06:34:13;;;;;;;;;;;19.80;92.50;;;20.19;53.75;98183.97;4968190;28;123709;-83
2023/08/04 06:36:46;;;;;;;;;;;19.80;92.40;;;20.22;53.69;98195.19;4969589;28;115617;-81
2023/08/04 06:39:12;;;;;;;;;;;19.80;92.40;;;20.23;53.60;98191.19;4978092;28;114231;-81
2023/08/04 06:41:42;;;;;;;;;;;19.80;92.40;;;20.24;53.44;98192.81;4982956;28;124113;-82
2023/08/04 06:44:08;;;;;;;;;;;19.80;92.40;;;20.26;53.31;98196.03;4987461;28;124345;-82
2023/08/04 06:46:34;;;;;;;;;;;19.90;92.40;;;20.30;53.27;98196.84;4973924;28;114367;-82
2023/08/04 06:49:01;;;;;;;;;;;18.30;91.70;;;20.35;53.48;98192.06;4976541;28;114076;-81
2023/08/04 06:51:30;;;;;;;;;;;19.90;92.40;;;20.39;53.17;98190.06;4977761;28;123240;-81
2023/08/04 06:53:58;;;;;;;;;;;20.00;92.60;;;20.41;53.03;98204.50;4976095;28;124215;-80
2023/08/04 06:56:25;;;;;;;;;;;20.00;92.40;;;20.43;52.92;98199.31;4987010;28;114122;-81
2023/08/04 06:58:53;;;;;;;;;;;20.00;92.30;;;20.46;53.14;98201.34;4994439;28;113648;-82
2023/08/04 07:01:19;;;;;;;;;;;20.10;92.20;;;20.49;52.81;98208.97;4969614;28;124140;-81
2023/08/04 07:03:47;;;;;;;;;;;20.10;92.40;;;20.51;52.75;98198.94;4994046;28;124209;-84
2023/08/04 07:06:19;;;;;;;;;;;20.10;92.00;;;20.58;52.52;98195.41;4988945;28;113898;-79
2023/08/04 07:08:45;;;;;;;;;;;20.20;92.00;;;20.63;52.42;98202.63;4987834;28;113932;-79
2023/08/04 07:11:20;;;;;;;;;;;20.20;92.00;;;20.67;52.49;98204.28;4984621;28;124163;-80
2023/08/04 07:13:46;;;;;;;;;;;20.20;91.90;;;20.72;52.18;98192.66;4988758;28;124319;-80
2023/08/04 07:16:12;;;;;;;;;;;20.20;91.80;;;20.76;51.55;98201.09;4976084;28;113679;-82
2023/08/04 07:18:42;;;;;;;;;;;20.30;91.60;;;20.76;51.48;98203.09;4970970;28;114225;-81
2023/08/04 07:21:19;;;;;;;;;;;20.30;91.40;;;20.83;51.38;98194.72;4977836;28;124265;-81
2023/08/04 07:23:46;;;;;;;;;;;20.30;91.40;;;20.92;51.35;98198.72;4987044;28;124237;-80
2023/08/04 07:26:19;;;;;;;;;;;20.40;91.40;;;21.04;51.00;98203.19;4980779;28;115221;-80
2023/08/04 07:28:46;;;;;;;;;;;20.50;91.40;;;21.14;50.83;98210.84;4995192;28;113672;-81
2023/08/04 07:31:12;;;;;;;;;;;20.60;91.40;;;21.22;51.01;98197.59;4970531;28;124085;-82
2023/08/04 07:33:44;;;;;;;;;;;20.70;91.30;;;21.32;50.51;98207.25;4967631;28;123937;-80
2023/08/04 07:36:20;;;;;;;;;;;20.80;91.30;;;21.37;50.55;98210.50;4982314;28;114415;-81
2023/08/04 07:38:48;;;;;;;;;;;20.80;91.10;;;21.42;50.42;98219.78;4967915;28;113146;-81
2023/08/04 07:41:19;;;;;;;;;;;20.90;90.90;;;21.40;50.38;98206.09;4967487;28;124769;-82
2023/08/04 07:43:45;;;;;;;;;;;21.00;90.80;;;21.41;50.05;98230.19;4970488;28;122634;-82
2023/08/04 07:46:32;;;;;;;;;;;21.00;90.70;;;21.43;50.41;98222.16;4983482;28;113257;-81
2023/08/04 07:48:58;;;;;;;;;;;21.00;90.70;;;21.54;50.14;98214.53;4974884;28;115001;-81
2023/08/04 07:51:29;;;;;;;;;;;21.10;90.70;;;21.73;49.92;98218.16;4977510;28;124260;-82
2023/08/04 07:53:56;;;;;;;;;;;19.50;90.00;;;21.89;49.28;98217.75;4975727;28;125909;-82
2023/08/04 07:56:22;;;;;;;;;;;21.30;90.60;;;22.03;49.13;98221.38;4967502;28;114679;-81
2023/08/04 07:58:48;;;;;;;;;;;21.40;90.60;;;22.16;49.02;98218.13;4984261;28;112965;-81
2023/08/04 08:01:23;;;;;;;;;;;21.50;90.60;;;22.24;49.05;98219.75;4991446;28;124707;-81
2023/08/04 08:03:54;;;;;;;;;;;21.60;90.60;;;22.30;48.85;98222.97;4995498;28;124079;-81
2023/08/04 08:06:22;;;;;;;;;;;21.70;90.50;;;22.38;48.50;98221.75;4976670;28;114753;-79
2023/08/04 08:08:54;;;;;;;;;;;21.80;90.30;;;22.41;48.30;98218.13;4999259;28;114327;-80
2023/08/04 08:11:21;;;;;;;;;;;21.80;90.10;;;22.41;47.93;98218.94;4988204;28;124172;-81
2023/08/04 08:13:50;;;;;;;;;;;21.90;89.70;;;22.39;48.02;98221.34;4996770;28;123967;-82
2023/08/04 08:16:17;;;;;;;;;;;21.90;89.60;;;22.37;47.99;98218.13;4999614;28;114539;-81
2023/08/04 08:18:43;;;;;;;;;;;21.90;89.40;;;22.37;47.96;98209.69;4986286;28;114864;-80
2023/08/04 08:21:13;;;;;;;;;;;21.90;89.10;;;22.39;48.02;98210.09;4970249;28;124833;-81
2023/08/04 08:23:39;;;;;;;;;;;22.00;89.10;;;22.43;47.75;98210.91;4981727;28;124279;-81
2023/08/04 08:26:06;;;;;;;;;;;22.00;89.00;;;22.47;47.61;98205.25;4992279;28;114392;-80
2023/08/04 08:28:32;;;;;;;;;;;22.00;88.90;;;22.52;47.75;98198.41;4997834;28;113736;-80
2023/08/04 08:31:02;;;;;;;;;;;22.10;88.90;;;22.46;47.60;98198.81;4974384;28;124205;-80
2023/08/04 08:33:28;;;;;;;;;;;22.10;88.30;;;22.39;47.89;98198.03;4977401;28;124341;-81
2023/08/04 08:36:04;;;;;;;;;;;22.00;88.50;;;22.30;47.84;98190.03;4976122;28;114487;-81
2023/08/04 08:38:31;;;;;;;;;;;22.00;88.70;;;22.24;48.13;98200.88;4979639;28;112553;-81
2023/08/04 08:40:57;;;;;;;;;;;21.90;88.70;;;22.22;48.36;98206.13;4971103;28;124821;-80
2023/08/04 08:43:29;;;;;;;;;;;21.90;88.60;;;22.20;48.48;98202.09;4981350;28;124817;-81
2023/08/04 08:46:04;;;;;;;;;;;21.90;88.70;;;22.21;48.39;98209.31;4990302;28;117636;-81
2023/08/04 08:48:39;;;;;;;;;;;21.90;88.70;;;22.21;48.30;98209.31;4983942;28;114021;-81
2023/08/04 08:51:17;;;;;;;;;;;21.90;88.80;;;22.20;48.48;98208.53;4972967;28;124328;-82
2023/08/04 08:53:45;;;;;;;;;;;21.90;88.70;;;22.18;48.40;98216.56;4969273;28;124020;-82
2023/08/04 08:56:15;;;;;;;;;;;21.90;88.70;;;22.16;48.27;98220.94;4986549;28;114391;-82
2023/08/04 08:58:42;;;;;;;;;;;21.80;89.10;;;22.17;48.76;98214.94;4984464;28;113076;-83
2023/08/04 09:01:09;;;;;;;;;;;21.80;89.30;;;22.26;48.56;98222.97;4996659;28;123137;-83
2023/08/04 09:03:38;;;;;;;;;;;21.80;89.50;;;22.35;48.53;98225.38;4980267;28;124070;-83
2023/08/04 09:06:05;;;;;;;;;;;21.80;89.70;;;22.43;48.39;98227.78;4990359;28;115843;-81
2023/08/04 09:08:31;;;;;;;;;;;21.90;89.60;;;22.52;48.33;98223.75;4985466;28;114647;-81
2023/08/04 09:11:03;;;;;;;;;;;22.00;89.30;;;22.53;48.16;98216.88;4981190;28;124178;-79
2023/08/04 09:13:30;;;;;;;;;;;22.10;88.80;;;22.52;47.82;98206.84;4995493;28;123026;-81
2023/08/04 09:16:04;;;;;;;;;;;22.00;88.70;;;22.56;48.21;98213.25;4985142;28;114560;-80
2023/08/04 09:18:40;;;;;;;;;;;22.00;89.10;;;22.60;48.16;98209.22;4992020;28;113489;-80
2023/08/04 09:21:15;;;;;;;;;;;22.10;89.10;;;22.64;48.23;98195.13;4982931;28;124449;-80
2023/08/04 09:23:54;;;;;;;;;;;22.10;89.20;;;22.68;48.10;98201.56;4975792;28;124516;-81
2023/08/04 09:26:20;;;;;;;;;;;22.10;88.90;;;22.71;48.09;98209.19;4989783;28;115109;-80
2023/08/04 09:29:06;;;;;;;;;;;22.20;89.30;;;22.79;48.00;98207.16;4993173;28;113810;-81
2023/08/04 09:31:48;;;;;;;;;;;22.30;89.20;;;22.86;47.88;98205.09;4994957;28;124181;-81
2023/08/04 09:34:15;;;;;;;;;;;22.30;89.10;;;22.88;47.78;98205.47;4991362;28;125280;-81
2023/08/04 09:36:43;;;;;;;;;;;22.40;88.80;;;22.92;47.76;98203.44;4984742;28;113766;-79
2023/08/04 09:39:13;;;;;;;;;;;22.40;88.70;;;22.99;47.78;98199.81;4993388;28;113807;-81
2023/08/04 09:41:44;;;;;;;;;;;22.50;88.70;;;23.08;47.42;98194.56;4990099;28;122880;-79
2023/08/04 09:44:14;;;;;;;;;;;22.60;88.70;;;23.14;47.35;98200.56;4983143;28;124335;-79
2023/08/04 09:46:51;;;;;;;;;;;22.60;88.30;;;23.11;46.81;98201.38;4966992;28;113425;-79
2023/08/04 09:49:27;;;;;;;;;;;22.70;87.60;;;23.08;47.03;98193.75;4977414;28;113886;-81
2023/08/04 09:51:56;;;;;;;;;;;22.70;87.50;;;23.03;47.18;98203.44;4978437;28;123760;-79
2023/08/04 09:54:25;;;;;;;;;;;22.70;87.40;;;23.02;47.24;98195.38;4994212;28;123977;-79
2023/08/04 09:56:52;;;;;;;;;;;22.70;87.60;;;23.03;47.32;98192.16;4990410;28;115293;-78
2023/08/04 09:59:19;;;;;;;;;;;22.70;87.60;;;23.02;47.33;98195.38;4987078;28;114983;-79
2023/08/04 10:01:45;;;;;;;;;;;22.70;87.70;;;23.01;47.45;98183.31;4990537;28;126004;-79
2023/08/04 10:04:18;;;;;;;;;;;22.70;87.80;;;22.96;47.46;98192.19;4960736;28;123283;-77
2023/08/04 10:06:45;;;;;;;;;;;22.60;87.80;;;22.92;47.73;98192.19;4976468;28;114674;-80
2023/08/04 10:09:14;;;;;;;;;;;22.60;88.10;;;22.92;47.99;98191.38;4987161;28;113613;-81
2023/08/04 10:11:40;;;;;;;;;;;22.60;88.10;;;22.89;48.07;98192.19;4982038;28;124670;-80
2023/08/04 10:14:07;;;;;;;;;;;22.60;88.30;;;22.88;48.47;98188.56;4977567;28;123830;-80
2023/08/04 10:16:37;;;;;;;;;;;22.60;88.50;;;22.90;47.99;98197.41;4985868;28;114654;-80
2023/08/04 10:19:06;;;;;;;;;;;22.60;88.50;;;22.88;48.32;98202.66;4970055;28;113860;-80
2023/08/04 10:21:34;;;;;;;;;;;22.60;88.50;;;22.88;48.25;98216.75;4980419;28;124836;-79
2023/08/04 10:24:03;;;;;;;;;;;22.60;88.60;;;22.89;48.33;98204.28;4992330;28;123699;-79
2023/08/04 10:26:52;;;;;;;;;;;22.60;88.80;;;22.88;48.58;98199.84;4981602;28;114466;-81
2023/08/04 10:29:20;;;;;;;;;;;22.60;89.00;;;22.81;48.94;98197.06;4986967;28;113536;-79
2023/08/04 10:31:51;;;;;;;;;;;22.60;89.30;;;22.76;49.24;98194.69;4962704;28;123796;-78
2023/08/04 10:34:39;;;;;;;;;;;22.50;89.30;;;22.69;49.20;98205.97;4981657;28;124228;-80
2023/08/04 10:37:09;;;;;;;;;;;22.50;89.60;;;22.63;49.48;98213.25;4982809;28;114985;-79
2023/08/04 10:40:02;;;;;;;;;;;22.40;89.80;;;22.58;49.61;98211.63;4979945;28;114629;-79
2023/08/04 10:42:29;;;;;;;;;;;22.40;90.00;;;22.60;49.74;98216.88;4990083;28;123701;-79
2023/08/04 10:45:05;;;;;;;;;;;22.40;90.10;;;22.59;50.24;98218.06;4979959;28;124229;-81
2023/08/04 10:47:44;;;;;;;;;;;22.30;90.20;;;22.50;50.51;98216.47;4974566;28;115709;-79
2023/08/04 10:50:14;;;;;;;;;;;22.30;90.40;;;22.49;50.47;98239.44;4956550;28;113566;-79
2023/08/04 10:52:41;;;;;;;;;;;22.30;90.50;;;22.47;50.80;98231.38;4981201;28;124525;-79
2023/08/04 10:55:13;;;;;;;;;;;22.20;90.70;;;22.46;50.76;98232.59;4980287;28;123858;-81
2023/08/04 10:57:41;;;;;;;;;;;22.20;90.70;;;22.46;50.98;98238.22;4968320;28;113860;-81
2023/08/04 11:00:14;;;;;;;;;;;22.20;90.80;;;22.43;51.05;98235.41;4990392;28;112907;-79
2023/08/04 11:02:40;;;;;;;;;;;22.20;90.80;;;22.41;50.96;98235.81;4979252;28;124100;-79
2023/08/04 11:05:13;;;;;;;;;;;22.20;90.80;;;22.40;51.12;98245.47;4991581;28;123846;-79
2023/08/04 11:07:49;;;;;;;;;;;22.20;90.90;;;22.40;51.29;98251.09;4975295;28;113923;-79
2023/08/04 11:10:15;;;;;;;;;;;22.20;90.90;;;22.42;51.11;98245.88;4988703;28;113862;-80
2023/08/04 11:12:41;;;;;;;;;;;22.20;90.90;;;22.42;51.02;98248.69;4970737;28;124128;-80
2023/08/04 11:15:14;;;;;;;;;;;22.20;91.00;;;22.40;50.93;98245.47;4979755;28;121974;-80
2023/08/04 11:17:42;;;;;;;;;;;22.10;91.00;;;22.40;51.21;98253.91;4987806;28;114432;-78